BOE231 KPAE-LSZH
Flight info
| Callsign | BOE231 |
|---|---|
| Flight time | N/A |
| Altitude | 35000 |
| Route | YDC DCT BEJAW DCT IKLIX DCT YBK DCT 6880N/M084F350 DCT BOPUT DCT 6960N DCT ASMOD DCT 6840N DCT 6730N DCT 6520N DCT RATSU/N0480F350 DCT DEVBI DCT LESNI DCT TIMUP L7 LONAM DCT ASBON DCT TUSUK DCT LAMGO T721 RILAX |
| Aircraft | B772/H-SDE2E3FGHIJ5LORVWXY/LB1D1 |
Departure
| Time | 2026-04-24 04:36 |
|---|---|
| Airport | Seattle Paine Field International Airport (KPAE) |
Arrival
| Time | N/A |
|---|---|
| Airport | Zürich Airport (LSZH) |
| Time | Latitude | Longitude | Altitude | Speed | Heading |
|---|---|---|---|---|---|
| 2026-04-24 04:25 | 47.91224 | -122.27866 | 571 ft | 0 kts | 0° |
| 2026-04-24 04:32 | 47.91245 | -122.27866 | 575 ft | 12 kts | 356° |
| 2026-04-24 04:32 | 47.91285 | -122.27932 | 578 ft | 12 kts | 283° |
| 2026-04-24 04:32 | 47.91291 | -122.28081 | 576 ft | 11 kts | 271° |
| 2026-04-24 04:33 | 47.91291 | -122.28085 | 576 ft | 0 kts | 271° |
| 2026-04-24 04:33 | 47.91292 | -122.28128 | 576 ft | 9 kts | 269° |
| 2026-04-24 04:33 | 47.91291 | -122.28264 | 576 ft | 17 kts | 270° |
| 2026-04-24 04:34 | 47.91329 | -122.28346 | 574 ft | 14 kts | 343° |
| 2026-04-24 04:34 | 47.91523 | -122.28354 | 573 ft | 39 kts | 358° |
| 2026-04-24 04:34 | 47.91786 | -122.28371 | 573 ft | 37 kts | 356° |
| 2026-04-24 04:34 | 47.92025 | -122.28401 | 575 ft | 33 kts | 354° |
| 2026-04-24 04:35 | 47.92205 | -122.28420 | 575 ft | 1 kts | 339° |
| 2026-04-24 04:35 | 47.92224 | -122.28459 | 574 ft | 11 kts | 289° |
| 2026-04-24 04:35 | 47.92213 | -122.28579 | 579 ft | 12 kts | 225° |
| 2026-04-24 04:35 | 47.92125 | -122.28588 | 577 ft | 0 kts | 179° |
| 2026-04-24 04:36 | 47.91953 | -122.28583 | 574 ft | 67 kts | 178° |
| 2026-04-24 04:36 | 47.91178 | -122.28566 | 577 ft | 153 kts | 179° |
| 2026-04-24 04:36 | 47.89900 | -122.28538 | 903 ft | 198 kts | 178° |
| 2026-04-24 04:36 | 47.88535 | -122.28483 | 2237 ft | 197 kts | 178° |
| 2026-04-24 04:37 | 47.87106 | -122.28429 | 3236 ft | 217 kts | 179° |
| 2026-04-24 04:37 | 47.85516 | -122.28381 | 3933 ft | 233 kts | 179° |
| 2026-04-24 04:37 | 47.83857 | -122.28294 | 4362 ft | 243 kts | 174° |
| 2026-04-24 04:37 | 47.82163 | -122.27762 | 4448 ft | 257 kts | 155° |
| 2026-04-24 04:38 | 47.80783 | -122.26031 | 4810 ft | 267 kts | 117° |
| 2026-04-24 04:38 | 47.80332 | -122.23403 | 5393 ft | 264 kts | 81° |
| 2026-04-24 04:38 | 47.80885 | -122.20860 | 6119 ft | 258 kts | 52° |
| 2026-04-24 04:38 | 47.82074 | -122.18940 | 6941 ft | 251 kts | 37° |
| 2026-04-24 04:39 | 47.83437 | -122.17341 | 7627 ft | 254 kts | 34° |
| 2026-04-24 04:39 | 47.84861 | -122.15757 | 8363 ft | 256 kts | 33° |
| 2026-04-24 04:39 | 47.86298 | -122.14174 | 9096 ft | 258 kts | 33° |
| 2026-04-24 04:39 | 47.87750 | -122.12576 | 9860 ft | 260 kts | 33° |
| 2026-04-24 04:40 | 47.89222 | -122.10952 | 10425 ft | 269 kts | 33° |
| 2026-04-24 04:40 | 47.90793 | -122.09219 | 10581 ft | 292 kts | 33° |
| 2026-04-24 04:40 | 47.92486 | -122.07344 | 10757 ft | 313 kts | 33° |
| 2026-04-24 04:40 | 47.94265 | -122.05362 | 11244 ft | 324 kts | 33° |
| 2026-04-24 04:41 | 47.96087 | -122.03319 | 11930 ft | 330 kts | 33° |
| 2026-04-24 04:41 | 47.97927 | -122.01249 | 12689 ft | 333 kts | 32° |
| 2026-04-24 04:41 | 47.99785 | -121.99156 | 13528 ft | 335 kts | 32° |
| 2026-04-24 04:41 | 48.01652 | -121.97048 | 14329 ft | 336 kts | 31° |
| 2026-04-24 04:42 | 48.03530 | -121.94925 | 14990 ft | 340 kts | 31° |
| 2026-04-24 04:42 | 48.05436 | -121.92774 | 15567 ft | 346 kts | 31° |
| 2026-04-24 04:42 | 48.07369 | -121.90588 | 16191 ft | 350 kts | 31° |
| 2026-04-24 04:42 | 48.09293 | -121.88408 | 16855 ft | 351 kts | 31° |
| 2026-04-24 04:43 | 48.11252 | -121.86187 | 17457 ft | 355 kts | 30° |
| 2026-04-24 04:43 | 48.13238 | -121.83934 | 17969 ft | 360 kts | 30° |
| 2026-04-24 04:43 | 48.15243 | -121.81652 | 18573 ft | 363 kts | 30° |
| 2026-04-24 04:43 | 48.17261 | -121.79359 | 19145 ft | 364 kts | 30° |
| 2026-04-24 04:44 | 48.19280 | -121.77061 | 19726 ft | 366 kts | 30° |
| 2026-04-24 04:44 | 48.21313 | -121.74748 | 20258 ft | 368 kts | 30° |
| 2026-04-24 04:44 | 48.23366 | -121.72406 | 20759 ft | 372 kts | 30° |
| 2026-04-24 04:44 | 48.25425 | -121.70054 | 21338 ft | 372 kts | 30° |
| 2026-04-24 04:45 | 48.27490 | -121.67692 | 21898 ft | 373 kts | 30° |
| 2026-04-24 04:45 | 48.29534 | -121.65352 | 22434 ft | 375 kts | 30° |
| 2026-04-24 04:45 | 48.31617 | -121.62965 | 22917 ft | 379 kts | 30° |
| 2026-04-24 04:45 | 48.33726 | -121.60549 | 23343 ft | 383 kts | 30° |
| 2026-04-24 04:46 | 48.35844 | -121.58118 | 23854 ft | 385 kts | 30° |
| 2026-04-24 04:46 | 48.37978 | -121.55668 | 24290 ft | 386 kts | 30° |
| 2026-04-24 04:46 | 48.40114 | -121.53210 | 24725 ft | 388 kts | 30° |
| 2026-04-24 04:46 | 48.42260 | -121.50738 | 25138 ft | 389 kts | 30° |
| 2026-04-24 04:47 | 48.44410 | -121.48258 | 25599 ft | 391 kts | 30° |
| 2026-04-24 04:47 | 48.46584 | -121.45751 | 25952 ft | 394 kts | 30° |
| 2026-04-24 04:47 | 48.48778 | -121.43218 | 26272 ft | 398 kts | 30° |
| 2026-04-24 04:47 | 48.50975 | -121.40677 | 26729 ft | 399 kts | 30° |
| 2026-04-24 04:48 | 48.53177 | -121.38125 | 27124 ft | 401 kts | 30° |
| 2026-04-24 04:48 | 48.55405 | -121.35542 | 27383 ft | 404 kts | 30° |
| 2026-04-24 04:48 | 48.57636 | -121.32951 | 27890 ft | 404 kts | 30° |
| 2026-04-24 04:48 | 48.59863 | -121.30359 | 28480 ft | 401 kts | 30° |
| 2026-04-24 04:49 | 48.62081 | -121.27773 | 28852 ft | 404 kts | 30° |
| 2026-04-24 04:49 | 48.64320 | -121.25170 | 29101 ft | 410 kts | 30° |
| 2026-04-24 04:49 | 48.66600 | -121.22521 | 29317 ft | 415 kts | 30° |
| 2026-04-24 04:49 | 48.68866 | -121.19879 | 29682 ft | 416 kts | 30° |
| 2026-04-24 04:50 | 48.71151 | -121.17205 | 30140 ft | 416 kts | 30° |
| 2026-04-24 04:50 | 48.73447 | -121.14515 | 30384 ft | 418 kts | 30° |
| 2026-04-24 04:50 | 48.75754 | -121.11809 | 30490 ft | 421 kts | 31° |
| 2026-04-24 04:50 | 48.78077 | -121.09090 | 30644 ft | 423 kts | 30° |
| 2026-04-24 04:51 | 48.80415 | -121.06348 | 30802 ft | 425 kts | 30° |
| 2026-04-24 04:51 | 48.82761 | -121.03593 | 30998 ft | 427 kts | 30° |
| 2026-04-24 04:51 | 48.85115 | -121.00822 | 31221 ft | 429 kts | 30° |
| 2026-04-24 04:51 | 48.87471 | -120.98041 | 31454 ft | 430 kts | 30° |
| 2026-04-24 04:52 | 48.89835 | -120.95248 | 31795 ft | 430 kts | 30° |
| 2026-04-24 04:52 | 48.92200 | -120.92451 | 32099 ft | 431 kts | 30° |
| 2026-04-24 04:52 | 48.94571 | -120.89644 | 32411 ft | 431 kts | 29° |
| 2026-04-24 04:52 | 48.96933 | -120.86846 | 32702 ft | 431 kts | 29° |
| 2026-04-24 04:53 | 48.99303 | -120.84040 | 32908 ft | 434 kts | 29° |
| 2026-04-24 04:53 | 49.01686 | -120.81214 | 33125 ft | 433 kts | 29° |
| 2026-04-24 04:53 | 49.04052 | -120.78395 | 33438 ft | 432 kts | 29° |
| 2026-04-24 04:53 | 49.06428 | -120.75565 | 33674 ft | 434 kts | 29° |
| 2026-04-24 04:54 | 49.08814 | -120.72724 | 33876 ft | 435 kts | 29° |
| 2026-04-24 04:54 | 49.11204 | -120.69875 | 34081 ft | 436 kts | 29° |
| 2026-04-24 04:54 | 49.13595 | -120.67017 | 34301 ft | 436 kts | 29° |
| 2026-04-24 04:54 | 49.15985 | -120.64157 | 34479 ft | 437 kts | 29° |
| 2026-04-24 04:55 | 49.18352 | -120.61321 | 34641 ft | 438 kts | 30° |
| 2026-04-24 04:55 | 49.20749 | -120.58445 | 34852 ft | 438 kts | 30° |
| 2026-04-24 04:55 | 49.23152 | -120.55558 | 35055 ft | 439 kts | 30° |
| 2026-04-24 04:55 | 49.25561 | -120.52663 | 35117 ft | 442 kts | 30° |
| 2026-04-24 04:56 | 49.30422 | -120.46806 | 35202 ft | 445 kts | 30° |
| 2026-04-24 04:56 | 49.35256 | -120.40963 | 35203 ft | 439 kts | 30° |
| 2026-04-24 04:57 | 49.40225 | -120.35747 | 35211 ft | 427 kts | 21° |
| 2026-04-24 04:57 | 49.45513 | -120.31629 | 35187 ft | 427 kts | 20° |
| 2026-04-24 04:58 | 49.50819 | -120.27527 | 35212 ft | 428 kts | 20° |
| 2026-04-24 04:58 | 49.56145 | -120.23373 | 35209 ft | 429 kts | 20° |
| 2026-04-24 04:59 | 49.61442 | -120.19215 | 35214 ft | 430 kts | 21° |
| 2026-04-24 04:59 | 49.66786 | -120.15006 | 35193 ft | 431 kts | 21° |
| 2026-04-24 05:00 | 49.72132 | -120.10783 | 35204 ft | 432 kts | 21° |
| 2026-04-24 05:00 | 49.77484 | -120.06543 | 35214 ft | 431 kts | 21° |
| 2026-04-24 05:01 | 49.82826 | -120.02302 | 35204 ft | 431 kts | 21° |
| 2026-04-24 05:01 | 49.88123 | -119.98086 | 35210 ft | 429 kts | 21° |
| 2026-04-24 05:02 | 49.93428 | -119.93855 | 35208 ft | 428 kts | 22° |
| 2026-04-24 05:02 | 49.98715 | -119.89627 | 35212 ft | 428 kts | 22° |
| 2026-04-24 05:03 | 50.04004 | -119.85388 | 35206 ft | 428 kts | 22° |
| 2026-04-24 05:03 | 50.09296 | -119.81136 | 35205 ft | 428 kts | 22° |
| 2026-04-24 05:04 | 50.14586 | -119.76874 | 35215 ft | 428 kts | 22° |
| 2026-04-24 05:04 | 50.19887 | -119.72593 | 35204 ft | 429 kts | 22° |
| 2026-04-24 05:05 | 50.25190 | -119.68298 | 35211 ft | 428 kts | 22° |
| 2026-04-24 05:05 | 50.30443 | -119.64034 | 35215 ft | 429 kts | 22° |
| 2026-04-24 05:06 | 50.35758 | -119.59710 | 35220 ft | 431 kts | 23° |
| 2026-04-24 05:06 | 50.41083 | -119.55367 | 35223 ft | 432 kts | 23° |
| 2026-04-24 05:07 | 50.46440 | -119.50985 | 35212 ft | 434 kts | 23° |
| 2026-04-24 05:07 | 50.51790 | -119.46595 | 35211 ft | 434 kts | 23° |
| 2026-04-24 05:08 | 50.57154 | -119.42186 | 35208 ft | 435 kts | 23° |
| 2026-04-24 05:08 | 50.61613 | -119.38513 | 35211 ft | 435 kts | 24° |
| 2026-04-24 05:09 | 50.67853 | -119.33355 | 35207 ft | 436 kts | 24° |
| 2026-04-24 05:09 | 50.72367 | -119.29615 | 35205 ft | 436 kts | 24° |
| 2026-04-24 05:10 | 50.78608 | -119.24430 | 35173 ft | 434 kts | 24° |
| 2026-04-24 05:10 | 50.83035 | -119.20742 | 35223 ft | 433 kts | 24° |
| 2026-04-24 05:11 | 50.88381 | -119.16281 | 35224 ft | 435 kts | 24° |
| 2026-04-24 05:11 | 50.93756 | -119.11783 | 35209 ft | 437 kts | 24° |
| 2026-04-24 05:12 | 50.99133 | -119.07271 | 35224 ft | 438 kts | 24° |
| 2026-04-24 05:12 | 51.04523 | -119.02736 | 35229 ft | 438 kts | 24° |
| 2026-04-24 05:13 | 51.12621 | -118.95899 | 35241 ft | 440 kts | 24° |
| 2026-04-24 05:14 | 51.18026 | -118.91323 | 35228 ft | 440 kts | 25° |
| 2026-04-24 05:14 | 51.23440 | -118.86724 | 35254 ft | 441 kts | 25° |
| 2026-04-24 05:15 | 51.28821 | -118.82142 | 35253 ft | 441 kts | 25° |
| 2026-04-24 05:15 | 51.34249 | -118.77507 | 35264 ft | 442 kts | 25° |
| 2026-04-24 05:16 | 51.39674 | -118.72863 | 35264 ft | 442 kts | 25° |
| 2026-04-24 05:16 | 51.45091 | -118.68211 | 35267 ft | 441 kts | 25° |
| 2026-04-24 05:17 | 51.50499 | -118.63556 | 35265 ft | 441 kts | 25° |
| 2026-04-24 05:17 | 51.55902 | -118.58892 | 35289 ft | 441 kts | 25° |
| 2026-04-24 05:18 | 51.61308 | -118.54212 | 35291 ft | 441 kts | 25° |
| 2026-04-24 05:18 | 51.66701 | -118.49533 | 35284 ft | 443 kts | 25° |
| 2026-04-24 05:19 | 51.72126 | -118.44814 | 35296 ft | 443 kts | 26° |
| 2026-04-24 05:19 | 51.77557 | -118.40073 | 35302 ft | 443 kts | 26° |
| 2026-04-24 05:20 | 51.82990 | -118.35320 | 35312 ft | 444 kts | 26° |
| 2026-04-24 05:20 | 51.88428 | -118.30547 | 35303 ft | 444 kts | 26° |
| 2026-04-24 05:21 | 51.93850 | -118.25777 | 35316 ft | 444 kts | 26° |
| 2026-04-24 05:21 | 51.99256 | -118.21007 | 35326 ft | 445 kts | 26° |
| 2026-04-24 05:22 | 52.04703 | -118.16188 | 35342 ft | 447 kts | 26° |
| 2026-04-24 05:22 | 52.10169 | -118.11338 | 35335 ft | 448 kts | 26° |
| 2026-04-24 05:23 | 52.15649 | -118.06462 | 35345 ft | 449 kts | 26° |
| 2026-04-24 05:23 | 52.21131 | -118.01569 | 35355 ft | 449 kts | 27° |
| 2026-04-24 05:24 | 52.26614 | -117.96661 | 35376 ft | 449 kts | 27° |
| 2026-04-24 05:24 | 52.32065 | -117.91773 | 35371 ft | 450 kts | 27° |
| 2026-04-24 05:25 | 52.37559 | -117.86826 | 35387 ft | 450 kts | 27° |
| 2026-04-24 05:25 | 52.43051 | -117.81868 | 35403 ft | 450 kts | 27° |
| 2026-04-24 05:26 | 52.48535 | -117.76907 | 35406 ft | 450 kts | 27° |
| 2026-04-24 05:26 | 52.53982 | -117.71962 | 35410 ft | 451 kts | 27° |
| 2026-04-24 05:27 | 52.59470 | -117.66967 | 35402 ft | 451 kts | 27° |
| 2026-04-24 05:27 | 52.64961 | -117.61953 | 35410 ft | 451 kts | 27° |
| 2026-04-24 05:28 | 52.70459 | -117.56919 | 35410 ft | 451 kts | 27° |
| 2026-04-24 05:28 | 52.75944 | -117.51882 | 35414 ft | 451 kts | 28° |
| 2026-04-24 05:29 | 52.81416 | -117.46844 | 35420 ft | 450 kts | 28° |
| 2026-04-24 05:29 | 52.86895 | -117.41782 | 35428 ft | 451 kts | 28° |
| 2026-04-24 05:30 | 52.92374 | -117.36706 | 35431 ft | 451 kts | 28° |
| 2026-04-24 05:30 | 52.97860 | -117.31610 | 35432 ft | 452 kts | 28° |
| 2026-04-24 05:31 | 53.03320 | -117.26523 | 35425 ft | 453 kts | 28° |
| 2026-04-24 05:31 | 53.08817 | -117.21387 | 35423 ft | 453 kts | 28° |
| 2026-04-24 05:32 | 53.14315 | -117.16233 | 35423 ft | 454 kts | 28° |
| 2026-04-24 05:32 | 53.19823 | -117.11055 | 35415 ft | 454 kts | 28° |
| 2026-04-24 05:33 | 53.25333 | -117.05859 | 35410 ft | 454 kts | 28° |
| 2026-04-24 05:33 | 53.30806 | -117.00683 | 35402 ft | 455 kts | 29° |
| 2026-04-24 05:34 | 53.39073 | -116.92836 | 35380 ft | 455 kts | 29° |
| 2026-04-24 05:34 | 53.44578 | -116.87591 | 35346 ft | 455 kts | 29° |
| 2026-04-24 05:35 | 53.50086 | -116.82326 | 35312 ft | 455 kts | 29° |
| 2026-04-24 05:35 | 53.55593 | -116.77047 | 35292 ft | 456 kts | 29° |
| 2026-04-24 05:36 | 53.61102 | -116.71751 | 35273 ft | 456 kts | 29° |
| 2026-04-24 05:36 | 53.66568 | -116.66479 | 35273 ft | 456 kts | 29° |
| 2026-04-24 05:37 | 53.72084 | -116.61144 | 35285 ft | 456 kts | 29° |
| 2026-04-24 05:37 | 53.77595 | -116.55796 | 35296 ft | 457 kts | 30° |
| 2026-04-24 05:38 | 53.83105 | -116.50434 | 35317 ft | 457 kts | 30° |
| 2026-04-24 05:38 | 53.88587 | -116.45082 | 35334 ft | 457 kts | 30° |
| 2026-04-24 05:39 | 53.94103 | -116.39681 | 35359 ft | 458 kts | 30° |
| 2026-04-24 05:39 | 53.99619 | -116.34263 | 35354 ft | 458 kts | 30° |
| 2026-04-24 05:40 | 54.05136 | -116.28826 | 35350 ft | 459 kts | 30° |
| 2026-04-24 05:40 | 54.10661 | -116.23366 | 35351 ft | 459 kts | 30° |
| 2026-04-24 05:41 | 54.16190 | -116.17885 | 35345 ft | 460 kts | 30° |
| 2026-04-24 05:41 | 54.21720 | -116.12384 | 35340 ft | 460 kts | 30° |
| 2026-04-24 05:42 | 54.27222 | -116.06896 | 35344 ft | 461 kts | 30° |
| 2026-04-24 05:42 | 54.32756 | -116.01357 | 35336 ft | 461 kts | 30° |
| 2026-04-24 05:43 | 54.38296 | -115.95795 | 35336 ft | 461 kts | 30° |
| 2026-04-24 05:43 | 54.43837 | -115.90214 | 35339 ft | 461 kts | 30° |
| 2026-04-24 05:44 | 54.49374 | -115.84621 | 35331 ft | 462 kts | 30° |
| 2026-04-24 05:44 | 54.54914 | -115.79006 | 35340 ft | 462 kts | 30° |
| 2026-04-24 05:45 | 54.60450 | -115.73377 | 35328 ft | 461 kts | 31° |
| 2026-04-24 05:45 | 54.65978 | -115.67737 | 35339 ft | 460 kts | 31° |
| 2026-04-24 05:46 | 54.71487 | -115.62101 | 35331 ft | 460 kts | 31° |
| 2026-04-24 05:46 | 54.76992 | -115.56450 | 35340 ft | 460 kts | 31° |
| 2026-04-24 05:47 | 54.82490 | -115.50786 | 35344 ft | 465 kts | 31° |
| 2026-04-24 05:47 | 54.88077 | -115.45014 | 35340 ft | 467 kts | 31° |
| 2026-04-24 05:48 | 54.93634 | -115.39254 | 35338 ft | 463 kts | 31° |
| 2026-04-24 05:48 | 54.99169 | -115.33499 | 35333 ft | 462 kts | 31° |
| 2026-04-24 05:49 | 55.04696 | -115.27732 | 35335 ft | 462 kts | 31° |
| 2026-04-24 05:49 | 55.10175 | -115.21997 | 35315 ft | 462 kts | 31° |
| 2026-04-24 05:50 | 55.15704 | -115.16192 | 35309 ft | 463 kts | 31° |
| 2026-04-24 05:50 | 55.21246 | -115.10352 | 35283 ft | 467 kts | 31° |
| 2026-04-24 05:51 | 55.26838 | -115.04442 | 35264 ft | 472 kts | 31° |
| 2026-04-24 05:51 | 55.32440 | -114.98501 | 35234 ft | 466 kts | 31° |
| 2026-04-24 05:52 | 55.37991 | -114.92594 | 35251 ft | 469 kts | 31° |
| 2026-04-24 05:52 | 55.43593 | -114.86612 | 35244 ft | 470 kts | 31° |
| 2026-04-24 05:53 | 55.49147 | -114.80662 | 35284 ft | 470 kts | 32° |
| 2026-04-24 05:53 | 55.54734 | -114.74658 | 35297 ft | 471 kts | 32° |
| 2026-04-24 05:54 | 55.60322 | -114.68631 | 35317 ft | 469 kts | 32° |
| 2026-04-24 05:54 | 55.65900 | -114.62596 | 35345 ft | 470 kts | 32° |
| 2026-04-24 05:55 | 55.71493 | -114.56524 | 35342 ft | 471 kts | 32° |
| 2026-04-24 05:55 | 55.77078 | -114.50437 | 35346 ft | 471 kts | 32° |
| 2026-04-24 05:56 | 55.82660 | -114.44337 | 35348 ft | 471 kts | 32° |
| 2026-04-24 05:56 | 55.87299 | -114.39249 | 35348 ft | 471 kts | 32° |
| 2026-04-24 05:57 | 55.93778 | -114.32119 | 35348 ft | 471 kts | 32° |
| 2026-04-24 05:57 | 55.98468 | -114.26942 | 35349 ft | 474 kts | 32° |
| 2026-04-24 05:58 | 56.03995 | -114.20820 | 35351 ft | 468 kts | 32° |
| 2026-04-24 05:58 | 56.09511 | -114.14691 | 35340 ft | 466 kts | 32° |
| 2026-04-24 05:59 | 56.15003 | -114.08566 | 35348 ft | 465 kts | 32° |
| 2026-04-24 05:59 | 56.20484 | -114.02431 | 35345 ft | 464 kts | 32° |
| 2026-04-24 06:00 | 56.25925 | -113.96322 | 35338 ft | 455 kts | 32° |
| 2026-04-24 06:00 | 56.31334 | -113.90228 | 35355 ft | 461 kts | 32° |
| 2026-04-24 06:01 | 56.36743 | -113.84113 | 35353 ft | 456 kts | 33° |
| 2026-04-24 06:01 | 56.42163 | -113.77967 | 35362 ft | 462 kts | 33° |
| 2026-04-24 06:02 | 56.47545 | -113.71840 | 35355 ft | 458 kts | 33° |
| 2026-04-24 06:02 | 56.52960 | -113.65655 | 35354 ft | 460 kts | 33° |
| 2026-04-24 06:03 | 56.58379 | -113.59446 | 35358 ft | 461 kts | 33° |
| 2026-04-24 06:03 | 56.63750 | -113.53269 | 35359 ft | 460 kts | 33° |
| 2026-04-24 06:04 | 56.69227 | -113.46950 | 35359 ft | 464 kts | 33° |
| 2026-04-24 06:04 | 56.74621 | -113.40704 | 35346 ft | 460 kts | 33° |
| 2026-04-24 06:05 | 56.80028 | -113.34422 | 35348 ft | 461 kts | 33° |
| 2026-04-24 06:05 | 56.85453 | -113.28095 | 35356 ft | 463 kts | 33° |
| 2026-04-24 06:06 | 56.90880 | -113.21745 | 35348 ft | 463 kts | 33° |
| 2026-04-24 06:06 | 56.96283 | -113.15402 | 35340 ft | 464 kts | 33° |
| 2026-04-24 06:07 | 57.01722 | -113.08993 | 35355 ft | 465 kts | 33° |
| 2026-04-24 06:07 | 57.07168 | -113.02551 | 35351 ft | 467 kts | 33° |
| 2026-04-24 06:08 | 57.12637 | -112.96062 | 35346 ft | 466 kts | 33° |
| 2026-04-24 06:08 | 57.18091 | -112.89568 | 35347 ft | 467 kts | 34° |
| 2026-04-24 06:09 | 57.23510 | -112.83002 | 35341 ft | 470 kts | 37° |
| 2026-04-24 06:09 | 57.28470 | -112.75193 | 35343 ft | 467 kts | 43° |
| 2026-04-24 06:10 | 57.33233 | -112.66972 | 35357 ft | 471 kts | 44° |
| 2026-04-24 06:11 | 57.40501 | -112.54426 | 35352 ft | 480 kts | 43° |
| 2026-04-24 06:11 | 57.45423 | -112.45971 | 35352 ft | 483 kts | 43° |
| 2026-04-24 06:12 | 57.50363 | -112.37472 | 35353 ft | 484 kts | 44° |
| 2026-04-24 06:12 | 57.55273 | -112.28986 | 35349 ft | 484 kts | 44° |
| 2026-04-24 06:13 | 57.60199 | -112.20438 | 35352 ft | 483 kts | 44° |
| 2026-04-24 06:13 | 57.65114 | -112.11876 | 35352 ft | 482 kts | 44° |
| 2026-04-24 06:14 | 57.70009 | -112.03314 | 35359 ft | 481 kts | 44° |
| 2026-04-24 06:14 | 57.74891 | -111.94740 | 35362 ft | 481 kts | 44° |
| 2026-04-24 06:15 | 57.79765 | -111.86150 | 35367 ft | 481 kts | 45° |
| 2026-04-24 06:15 | 57.84602 | -111.77586 | 35366 ft | 482 kts | 45° |
| 2026-04-24 06:16 | 57.89486 | -111.68910 | 35367 ft | 482 kts | 45° |
| 2026-04-24 06:16 | 57.94364 | -111.60212 | 35366 ft | 483 kts | 45° |
| 2026-04-24 06:17 | 57.99247 | -111.51470 | 35367 ft | 484 kts | 45° |
| 2026-04-24 06:17 | 58.04126 | -111.42700 | 35367 ft | 485 kts | 45° |
| 2026-04-24 06:18 | 58.08986 | -111.33926 | 35371 ft | 486 kts | 45° |
| 2026-04-24 06:18 | 58.13883 | -111.25051 | 35369 ft | 487 kts | 45° |
| 2026-04-24 06:19 | 58.18773 | -111.16155 | 35372 ft | 488 kts | 45° |
| 2026-04-24 06:19 | 58.23668 | -111.07216 | 35369 ft | 488 kts | 46° |
| 2026-04-24 06:20 | 58.28552 | -110.98256 | 35368 ft | 487 kts | 46° |
| 2026-04-24 06:20 | 58.33427 | -110.89282 | 35475 ft | 489 kts | 46° |
| 2026-04-24 06:20 | 58.35873 | -110.84762 | 35671 ft | 489 kts | 45° |
| 2026-04-24 06:21 | 58.38317 | -110.80236 | 35812 ft | 491 kts | 45° |
| 2026-04-24 06:21 | 58.40770 | -110.75686 | 35998 ft | 491 kts | 46° |
| 2026-04-24 06:21 | 58.43215 | -110.71143 | 36268 ft | 489 kts | 46° |
| 2026-04-24 06:21 | 58.45650 | -110.66608 | 36518 ft | 488 kts | 46° |
| 2026-04-24 06:22 | 58.48082 | -110.62071 | 36737 ft | 488 kts | 45° |
| 2026-04-24 06:22 | 58.50510 | -110.57532 | 36935 ft | 488 kts | 45° |
| 2026-04-24 06:22 | 58.52904 | -110.53047 | 37113 ft | 488 kts | 45° |
| 2026-04-24 06:22 | 58.55336 | -110.48480 | 37268 ft | 489 kts | 45° |
| 2026-04-24 06:23 | 58.57767 | -110.43906 | 37423 ft | 490 kts | 45° |
| 2026-04-24 06:23 | 58.60198 | -110.39322 | 37544 ft | 491 kts | 45° |
| 2026-04-24 06:23 | 58.62627 | -110.34736 | 37754 ft | 490 kts | 45° |
| 2026-04-24 06:23 | 58.65054 | -110.30142 | 37879 ft | 490 kts | 45° |
| 2026-04-24 06:24 | 58.67479 | -110.25543 | 38068 ft | 490 kts | 45° |
| 2026-04-24 06:24 | 58.69903 | -110.20933 | 38243 ft | 490 kts | 45° |
| 2026-04-24 06:24 | 58.72327 | -110.16317 | 38400 ft | 489 kts | 45° |
| 2026-04-24 06:24 | 58.74739 | -110.11712 | 38598 ft | 489 kts | 45° |
| 2026-04-24 06:25 | 58.77157 | -110.07088 | 38704 ft | 489 kts | 45° |
| 2026-04-24 06:25 | 58.79572 | -110.02461 | 38854 ft | 489 kts | 45° |
| 2026-04-24 06:25 | 58.81987 | -109.97823 | 38987 ft | 490 kts | 45° |
| 2026-04-24 06:26 | 58.86782 | -109.88582 | 39137 ft | 491 kts | 45° |
| 2026-04-24 06:26 | 58.91616 | -109.79229 | 39324 ft | 491 kts | 45° |
| 2026-04-24 06:27 | 58.96439 | -109.69860 | 39517 ft | 491 kts | 45° |
| 2026-04-24 06:27 | 58.98855 | -109.65150 | 39621 ft | 491 kts | 45° |
| 2026-04-24 06:27 | 59.01264 | -109.60444 | 39693 ft | 491 kts | 45° |
| 2026-04-24 06:27 | 59.03669 | -109.55739 | 39806 ft | 491 kts | 46° |
| 2026-04-24 06:28 | 59.06067 | -109.51035 | 39928 ft | 490 kts | 46° |
| 2026-04-24 06:28 | 59.08467 | -109.46317 | 40058 ft | 489 kts | 46° |
| 2026-04-24 06:28 | 59.10856 | -109.41612 | 40178 ft | 488 kts | 46° |
| 2026-04-24 06:28 | 59.13241 | -109.36905 | 40287 ft | 488 kts | 46° |
| 2026-04-24 06:29 | 59.15626 | -109.32188 | 40414 ft | 487 kts | 46° |
| 2026-04-24 06:29 | 59.17967 | -109.27547 | 40519 ft | 487 kts | 46° |
| 2026-04-24 06:29 | 59.20339 | -109.22835 | 40608 ft | 487 kts | 46° |
| 2026-04-24 06:29 | 59.22706 | -109.18124 | 40714 ft | 486 kts | 46° |
| 2026-04-24 06:30 | 59.25070 | -109.13409 | 40846 ft | 485 kts | 46° |
| 2026-04-24 06:30 | 59.29792 | -109.03959 | 41010 ft | 485 kts | 46° |
| 2026-04-24 06:31 | 59.34507 | -108.94485 | 41162 ft | 486 kts | 46° |
| 2026-04-24 06:31 | 59.36858 | -108.89744 | 41276 ft | 485 kts | 46° |
| 2026-04-24 06:31 | 59.39211 | -108.84991 | 41355 ft | 485 kts | 46° |
| 2026-04-24 06:32 | 59.43900 | -108.75490 | 41571 ft | 483 kts | 46° |
| 2026-04-24 06:32 | 59.46241 | -108.70729 | 41687 ft | 483 kts | 46° |
| 2026-04-24 06:32 | 59.48572 | -108.65980 | 41790 ft | 482 kts | 46° |
| 2026-04-24 06:33 | 59.53191 | -108.56541 | 41988 ft | 481 kts | 46° |
| 2026-04-24 06:33 | 59.57836 | -108.47055 | 42136 ft | 481 kts | 45° |
| 2026-04-24 06:34 | 59.62534 | -108.37618 | 42206 ft | 482 kts | 45° |
| 2026-04-24 06:34 | 59.67254 | -108.28132 | 42225 ft | 485 kts | 45° |
| 2026-04-24 06:35 | 59.71977 | -108.18578 | 42381 ft | 484 kts | 45° |
| 2026-04-24 06:35 | 59.76650 | -108.09065 | 42420 ft | 485 kts | 45° |
| 2026-04-24 06:36 | 59.81357 | -107.99435 | 42470 ft | 487 kts | 45° |
| 2026-04-24 06:36 | 59.86071 | -107.89750 | 42531 ft | 487 kts | 46° |
| 2026-04-24 06:37 | 59.90787 | -107.80020 | 42673 ft | 487 kts | 46° |
| 2026-04-24 06:37 | 59.95485 | -107.70286 | 42720 ft | 488 kts | 46° |
| 2026-04-24 06:38 | 60.00184 | -107.60507 | 42793 ft | 488 kts | 46° |
| 2026-04-24 06:38 | 60.04894 | -107.50663 | 42768 ft | 491 kts | 46° |
| 2026-04-24 06:39 | 60.09605 | -107.40771 | 42834 ft | 491 kts | 46° |
| 2026-04-24 06:39 | 60.14311 | -107.30845 | 42850 ft | 492 kts | 46° |
| 2026-04-24 06:40 | 60.19006 | -107.20899 | 42909 ft | 492 kts | 46° |
| 2026-04-24 06:40 | 60.21354 | -107.15910 | 43031 ft | 490 kts | 46° |
| 2026-04-24 06:40 | 60.23699 | -107.10915 | 43043 ft | 491 kts | 46° |
| 2026-04-24 06:41 | 60.28405 | -107.00857 | 43004 ft | 493 kts | 46° |
| 2026-04-24 06:41 | 60.33085 | -106.90810 | 42980 ft | 495 kts | 46° |
| 2026-04-24 06:42 | 60.37797 | -106.80649 | 43100 ft | 494 kts | 46° |
| 2026-04-24 06:42 | 60.42493 | -106.70475 | 43096 ft | 495 kts | 46° |
| 2026-04-24 06:43 | 60.47195 | -106.60244 | 43125 ft | 495 kts | 46° |
| 2026-04-24 06:43 | 60.51089 | -106.51732 | 43243 ft | 493 kts | 46° |
| 2026-04-24 06:44 | 60.55765 | -106.41470 | 43171 ft | 496 kts | 47° |
| 2026-04-24 06:44 | 60.60453 | -106.31137 | 43186 ft | 496 kts | 47° |
| 2026-04-24 06:45 | 60.65118 | -106.20803 | 43261 ft | 496 kts | 47° |
| 2026-04-24 06:45 | 60.69752 | -106.10493 | 43300 ft | 496 kts | 47° |
| 2026-04-24 06:46 | 60.74404 | -106.00094 | 43315 ft | 496 kts | 47° |
| 2026-04-24 06:46 | 60.79068 | -105.89621 | 43279 ft | 498 kts | 47° |
| 2026-04-24 06:47 | 60.83729 | -105.79104 | 43304 ft | 498 kts | 47° |
| 2026-04-24 06:47 | 60.88365 | -105.68595 | 43445 ft | 494 kts | 47° |
| 2026-04-24 06:48 | 60.92962 | -105.58125 | 43548 ft | 492 kts | 47° |
| 2026-04-24 06:48 | 60.97537 | -105.47660 | 43555 ft | 491 kts | 47° |
| 2026-04-24 06:49 | 61.02102 | -105.37167 | 43566 ft | 491 kts | 47° |
| 2026-04-24 06:49 | 61.06647 | -105.26670 | 43569 ft | 490 kts | 47° |
| 2026-04-24 06:50 | 61.11155 | -105.16211 | 43576 ft | 490 kts | 47° |
| 2026-04-24 06:50 | 61.15672 | -105.05681 | 43577 ft | 489 kts | 48° |
| 2026-04-24 06:51 | 61.20188 | -104.95107 | 43579 ft | 489 kts | 48° |
| 2026-04-24 06:51 | 61.24691 | -104.84512 | 43583 ft | 489 kts | 48° |
| 2026-04-24 06:52 | 61.29186 | -104.73885 | 43587 ft | 489 kts | 48° |
| 2026-04-24 06:52 | 61.33671 | -104.63232 | 43593 ft | 489 kts | 48° |
| 2026-04-24 06:53 | 61.38113 | -104.52632 | 43592 ft | 488 kts | 48° |
| 2026-04-24 06:53 | 61.42575 | -104.41933 | 43601 ft | 488 kts | 48° |
| 2026-04-24 06:54 | 61.47032 | -104.31196 | 43598 ft | 488 kts | 48° |
| 2026-04-24 06:54 | 61.51477 | -104.20437 | 43603 ft | 488 kts | 49° |
| 2026-04-24 06:55 | 61.55914 | -104.09646 | 43612 ft | 488 kts | 49° |
| 2026-04-24 06:55 | 61.60345 | -103.98815 | 43612 ft | 488 kts | 49° |
| 2026-04-24 06:56 | 61.64739 | -103.88027 | 43620 ft | 488 kts | 49° |
| 2026-04-24 06:56 | 61.69141 | -103.77166 | 43610 ft | 488 kts | 49° |
| 2026-04-24 06:57 | 61.73550 | -103.66235 | 43582 ft | 490 kts | 49° |
| 2026-04-24 06:57 | 61.75766 | -103.60721 | 43472 ft | 493 kts | 49° |
| 2026-04-24 06:57 | 61.77986 | -103.55185 | 43488 ft | 492 kts | 49° |
| 2026-04-24 06:57 | 61.80186 | -103.49683 | 43639 ft | 489 kts | 49° |
| 2026-04-24 06:58 | 61.82381 | -103.44182 | 43635 ft | 490 kts | 49° |
| 2026-04-24 06:58 | 61.84573 | -103.38675 | 43518 ft | 492 kts | 49° |
| 2026-04-24 06:58 | 61.86803 | -103.33057 | 43101 ft | 498 kts | 49° |
| 2026-04-24 06:58 | 61.89039 | -103.27412 | 42535 ft | 502 kts | 49° |
| 2026-04-24 06:59 | 61.91299 | -103.21694 | 41950 ft | 508 kts | 49° |
| 2026-04-24 06:59 | 61.93567 | -103.15937 | 41772 ft | 509 kts | 49° |
| 2026-04-24 06:59 | 61.95839 | -103.10154 | 41664 ft | 511 kts | 50° |
| 2026-04-24 07:00 | 62.00375 | -102.98569 | 41652 ft | 513 kts | 50° |
| 2026-04-24 07:00 | 62.04935 | -102.86861 | 41651 ft | 514 kts | 50° |
| 2026-04-24 07:01 | 62.09502 | -102.75074 | 41655 ft | 516 kts | 50° |
| 2026-04-24 07:01 | 62.14080 | -102.63198 | 41658 ft | 517 kts | 50° |
| 2026-04-24 07:02 | 62.18641 | -102.51305 | 41661 ft | 518 kts | 50° |
| 2026-04-24 07:02 | 62.23187 | -102.39388 | 41664 ft | 519 kts | 50° |
| 2026-04-24 07:03 | 62.27750 | -102.27362 | 41669 ft | 519 kts | 50° |
| 2026-04-24 07:03 | 62.32305 | -102.15295 | 41672 ft | 520 kts | 50° |
| 2026-04-24 07:04 | 62.36858 | -102.03167 | 41673 ft | 521 kts | 50° |
| 2026-04-24 07:04 | 62.41406 | -101.90985 | 41676 ft | 521 kts | 50° |
| 2026-04-24 07:05 | 62.45941 | -101.78775 | 41678 ft | 521 kts | 50° |
| 2026-04-24 07:05 | 62.50440 | -101.66597 | 41683 ft | 522 kts | 51° |
| 2026-04-24 07:06 | 62.54963 | -101.54287 | 41686 ft | 522 kts | 51° |
| 2026-04-24 07:06 | 62.59476 | -101.41937 | 41687 ft | 522 kts | 51° |
| 2026-04-24 07:07 | 62.63969 | -101.29575 | 41685 ft | 521 kts | 51° |
| 2026-04-24 07:07 | 62.70697 | -101.10938 | 41691 ft | 521 kts | 51° |
| 2026-04-24 07:08 | 62.75130 | -100.98571 | 41699 ft | 520 kts | 51° |
| 2026-04-24 07:08 | 62.79584 | -100.86079 | 41700 ft | 520 kts | 51° |
| 2026-04-24 07:09 | 62.84020 | -100.73569 | 41701 ft | 520 kts | 51° |
| 2026-04-24 07:09 | 62.88419 | -100.61097 | 41704 ft | 520 kts | 51° |
| 2026-04-24 07:10 | 62.92837 | -100.48499 | 41708 ft | 520 kts | 51° |
| 2026-04-24 07:10 | 62.97241 | -100.35871 | 41711 ft | 521 kts | 51° |
| 2026-04-24 07:11 | 63.01634 | -100.23204 | 41713 ft | 521 kts | 52° |
| 2026-04-24 07:11 | 63.06023 | -100.10479 | 41715 ft | 521 kts | 52° |
| 2026-04-24 07:12 | 63.10400 | -99.97714 | 41721 ft | 522 kts | 52° |
| 2026-04-24 07:12 | 63.14774 | -99.84889 | 41720 ft | 522 kts | 52° |
| 2026-04-24 07:13 | 63.19139 | -99.72016 | 41728 ft | 523 kts | 52° |
| 2026-04-24 07:13 | 63.23466 | -99.59181 | 41727 ft | 523 kts | 52° |
| 2026-04-24 07:14 | 63.27816 | -99.46207 | 41729 ft | 524 kts | 52° |
| 2026-04-24 07:14 | 63.32155 | -99.33190 | 41732 ft | 524 kts | 52° |
| 2026-04-24 07:15 | 63.36492 | -99.20103 | 41737 ft | 524 kts | 52° |
| 2026-04-24 07:15 | 63.40817 | -99.06977 | 41740 ft | 525 kts | 52° |
| 2026-04-24 07:16 | 63.45127 | -98.93821 | 41741 ft | 525 kts | 53° |
| 2026-04-24 07:16 | 63.49431 | -98.80606 | 41745 ft | 525 kts | 53° |
| 2026-04-24 07:17 | 63.53724 | -98.67348 | 41748 ft | 525 kts | 53° |
| 2026-04-24 07:17 | 63.57982 | -98.54121 | 41747 ft | 526 kts | 53° |
| 2026-04-24 07:18 | 63.62250 | -98.40784 | 41751 ft | 526 kts | 53° |
| 2026-04-24 07:18 | 63.66514 | -98.27380 | 41751 ft | 526 kts | 53° |
| 2026-04-24 07:19 | 63.69907 | -98.16656 | 41752 ft | 526 kts | 53° |
| 2026-04-24 07:19 | 63.74143 | -98.03199 | 41752 ft | 526 kts | 53° |
| 2026-04-24 07:20 | 63.78370 | -97.89689 | 41760 ft | 526 kts | 53° |
| 2026-04-24 07:20 | 63.82586 | -97.76133 | 41758 ft | 526 kts | 53° |
| 2026-04-24 07:21 | 63.86797 | -97.62512 | 41766 ft | 527 kts | 54° |
| 2026-04-24 07:21 | 63.90988 | -97.48874 | 41765 ft | 527 kts | 54° |
| 2026-04-24 07:22 | 63.95143 | -97.35270 | 41770 ft | 527 kts | 54° |
| 2026-04-24 07:22 | 63.99311 | -97.21539 | 41772 ft | 527 kts | 54° |
| 2026-04-24 07:23 | 64.03470 | -97.07756 | 41774 ft | 527 kts | 54° |
| 2026-04-24 07:23 | 64.07617 | -96.93927 | 41776 ft | 528 kts | 54° |
| 2026-04-24 07:24 | 64.11755 | -96.80045 | 41778 ft | 528 kts | 54° |
| 2026-04-24 07:24 | 64.15882 | -96.66110 | 41783 ft | 528 kts | 54° |
| 2026-04-24 07:25 | 64.19990 | -96.52154 | 41782 ft | 528 kts | 54° |
| 2026-04-24 07:25 | 64.24094 | -96.38127 | 41785 ft | 528 kts | 55° |
| 2026-04-24 07:26 | 64.28183 | -96.24063 | 41793 ft | 528 kts | 55° |
| 2026-04-24 07:26 | 64.32268 | -96.09974 | 41789 ft | 528 kts | 54° |
| 2026-04-24 07:27 | 64.36565 | -95.96209 | 41790 ft | 528 kts | 52° |
| 2026-04-24 07:27 | 64.40978 | -95.82628 | 41793 ft | 528 kts | 51° |
| 2026-04-24 07:28 | 64.45377 | -95.68985 | 41793 ft | 529 kts | 52° |
| 2026-04-24 07:28 | 64.49712 | -95.55316 | 41794 ft | 529 kts | 52° |
| 2026-04-24 07:29 | 64.53347 | -95.43738 | 41791 ft | 529 kts | 52° |
| 2026-04-24 07:29 | 64.57647 | -95.29955 | 41793 ft | 530 kts | 52° |
| 2026-04-24 07:30 | 64.61979 | -95.15997 | 41799 ft | 530 kts | 53° |
| 2026-04-24 07:30 | 64.66983 | -94.99768 | 41804 ft | 530 kts | 53° |
| 2026-04-24 07:31 | 64.70581 | -94.88031 | 41786 ft | 530 kts | 53° |
| 2026-04-24 07:31 | 64.74866 | -94.73968 | 41805 ft | 530 kts | 53° |
| 2026-04-24 07:32 | 64.79138 | -94.59860 | 41793 ft | 531 kts | 53° |
| 2026-04-24 07:32 | 64.83376 | -94.45775 | 41789 ft | 531 kts | 53° |
| 2026-04-24 07:33 | 64.87650 | -94.31483 | 41802 ft | 531 kts | 53° |
| 2026-04-24 07:33 | 64.91862 | -94.17304 | 41801 ft | 531 kts | 54° |
| 2026-04-24 07:34 | 64.96085 | -94.03000 | 41804 ft | 531 kts | 54° |
| 2026-04-24 07:34 | 65.00303 | -93.88619 | 41804 ft | 531 kts | 54° |
| 2026-04-24 07:35 | 65.04506 | -93.74197 | 41806 ft | 532 kts | 54° |
| 2026-04-24 07:35 | 65.08666 | -93.59833 | 41806 ft | 532 kts | 54° |
| 2026-04-24 07:36 | 65.12839 | -93.45329 | 41807 ft | 532 kts | 54° |
| 2026-04-24 07:36 | 65.17000 | -93.30769 | 41808 ft | 532 kts | 54° |
| 2026-04-24 07:37 | 65.21144 | -93.16176 | 41808 ft | 532 kts | 54° |
| 2026-04-24 07:37 | 65.25282 | -93.01510 | 41812 ft | 532 kts | 55° |
| 2026-04-24 07:38 | 65.29401 | -92.86813 | 41809 ft | 532 kts | 55° |
| 2026-04-24 07:38 | 65.33512 | -92.72048 | 41811 ft | 533 kts | 55° |
| 2026-04-24 07:39 | 65.37579 | -92.57344 | 41812 ft | 533 kts | 55° |
| 2026-04-24 07:39 | 65.41664 | -92.42477 | 41809 ft | 533 kts | 56° |
| 2026-04-24 07:40 | 65.45732 | -92.27569 | 41811 ft | 533 kts | 56° |
| 2026-04-24 07:40 | 65.49788 | -92.12608 | 41815 ft | 533 kts | 56° |
| 2026-04-24 07:41 | 65.53836 | -91.97570 | 41813 ft | 533 kts | 56° |
| 2026-04-24 07:41 | 65.57839 | -91.82603 | 41817 ft | 534 kts | 56° |
| 2026-04-24 07:42 | 65.61859 | -91.67471 | 41814 ft | 534 kts | 56° |
| 2026-04-24 07:42 | 65.65860 | -91.52307 | 41821 ft | 534 kts | 56° |
| 2026-04-24 07:43 | 65.69847 | -91.37090 | 41818 ft | 534 kts | 57° |
| 2026-04-24 07:43 | 65.73819 | -91.21823 | 41821 ft | 534 kts | 57° |
| 2026-04-24 07:44 | 65.77753 | -91.06600 | 41820 ft | 534 kts | 57° |
| 2026-04-24 07:44 | 65.81704 | -90.91205 | 41825 ft | 535 kts | 57° |
| 2026-04-24 07:45 | 65.85631 | -90.75795 | 41825 ft | 535 kts | 57° |
| 2026-04-24 07:45 | 65.89545 | -90.60327 | 41827 ft | 535 kts | 57° |
| 2026-04-24 07:46 | 65.93446 | -90.44803 | 41831 ft | 535 kts | 57° |
| 2026-04-24 07:46 | 65.97305 | -90.29339 | 41825 ft | 535 kts | 58° |
| 2026-04-24 07:47 | 66.01179 | -90.13702 | 41829 ft | 535 kts | 58° |
| 2026-04-24 07:47 | 66.04776 | -89.99084 | 41828 ft | 535 kts | 58° |
| 2026-04-24 07:48 | 66.08555 | -89.83614 | 41829 ft | 535 kts | 58° |
| 2026-04-24 07:48 | 66.12378 | -89.67861 | 41827 ft | 535 kts | 58° |
| 2026-04-24 07:49 | 66.16187 | -89.52051 | 41830 ft | 535 kts | 58° |
| 2026-04-24 07:49 | 66.19955 | -89.36291 | 41829 ft | 535 kts | 59° |
| 2026-04-24 07:50 | 66.23729 | -89.20397 | 41832 ft | 536 kts | 59° |
| 2026-04-24 07:50 | 66.27488 | -89.04447 | 41832 ft | 536 kts | 59° |
| 2026-04-24 07:51 | 66.31236 | -88.88425 | 41833 ft | 536 kts | 59° |
| 2026-04-24 07:51 | 66.34964 | -88.72374 | 41830 ft | 536 kts | 59° |
| 2026-04-24 07:52 | 66.38686 | -88.56226 | 41833 ft | 536 kts | 59° |
| 2026-04-24 07:52 | 66.42386 | -88.40056 | 41834 ft | 536 kts | 59° |
| 2026-04-24 07:53 | 66.46067 | -88.23845 | 41833 ft | 536 kts | 60° |
| 2026-04-24 07:53 | 66.49731 | -88.07591 | 41837 ft | 536 kts | 60° |
| 2026-04-24 07:54 | 66.53356 | -87.91386 | 41834 ft | 536 kts | 60° |
| 2026-04-24 07:54 | 66.56991 | -87.75011 | 41818 ft | 536 kts | 60° |
| 2026-04-24 07:55 | 66.60607 | -87.58598 | 41828 ft | 536 kts | 60° |
| 2026-04-24 07:55 | 66.64202 | -87.42155 | 41842 ft | 537 kts | 60° |
| 2026-04-24 07:56 | 66.67792 | -87.25609 | 41827 ft | 537 kts | 61° |
| 2026-04-24 07:56 | 66.71356 | -87.09053 | 41831 ft | 537 kts | 61° |
| 2026-04-24 07:57 | 66.74906 | -86.92431 | 41832 ft | 537 kts | 61° |
| 2026-04-24 07:57 | 66.78439 | -86.75761 | 41825 ft | 537 kts | 61° |
| 2026-04-24 07:58 | 66.81930 | -86.59162 | 41825 ft | 537 kts | 62° |
| 2026-04-24 07:58 | 66.82816 | -86.54923 | 41830 ft | 537 kts | 62° |